Time;durP1;ratioP1;P1;durP2;ratioP2;P2;SDS_P1;SDS_P2;PMS_P1;PMS_P2;Temp;Humidity;BMP_temperature;BMP_pressure;BME280_temperature;BME280_humidity;BME280_pressure;Samples;Min_cycle;Max_cycle;Signal;HPM_P1;HPM_P2
2024/03/20 00:00:34;;;;;;;4.57;2.10;;;21.70;53.00;;;;;;5088269;28;20028;-64
2024/03/20 00:02:59;;;;;;;4.35;2.28;;;21.70;53.00;;;;;;5089093;28;20491;-64
2024/03/20 00:05:25;;;;;;;5.07;2.35;;;21.70;53.00;;;;;;5089791;28;20020;-64
2024/03/20 00:07:50;;;;;;;4.93;2.40;;;21.70;53.00;;;;;;5090017;28;20391;-65
2024/03/20 00:10:16;;;;;;;5.47;2.40;;;21.70;53.00;;;;;;5089839;28;20031;-64
2024/03/20 00:12:42;;;;;;;4.22;2.30;;;21.70;53.00;;;;;;5089106;28;20028;-64
2024/03/20 00:15:08;;;;;;;4.53;2.13;;;21.70;53.00;;;;;;5088224;28;20484;-64
2024/03/20 00:17:34;;;;;;;4.05;2.17;;;21.70;53.00;;;;;;5089666;28;20032;-64
2024/03/20 00:20:01;;;;;;;4.35;2.30;;;21.60;52.90;;;;;;5089334;28;20024;-64
2024/03/20 00:22:30;;;;;;;4.45;2.13;;;21.70;53.00;;;;;;5089921;28;20480;-64
2024/03/20 00:24:56;;;;;;;4.38;2.15;;;21.70;53.00;;;;;;5089183;28;20493;-64
2024/03/20 00:27:22;;;;;;;5.15;2.00;;;21.60;52.90;;;;;;5089672;28;20101;-64
2024/03/20 00:29:48;;;;;;;4.43;2.08;;;21.60;52.90;;;;;;5087353;28;20376;-64
2024/03/20 00:32:13;;;;;;;4.53;2.00;;;21.60;52.90;;;;;;5089525;28;20032;-64
2024/03/20 00:34:39;;;;;;;4.22;2.10;;;21.60;52.90;;;;;;5089043;28;20024;-66
2024/03/20 00:37:05;;;;;;;4.35;2.10;;;21.60;52.90;;;;;;5089252;28;20530;-66
2024/03/20 00:39:30;;;;;;;4.75;2.15;;;21.60;52.90;;;;;;5089315;28;20032;-66
2024/03/20 00:41:56;;;;;;;5.68;2.13;;;21.60;52.90;;;;;;5089347;28;20480;-66
2024/03/20 00:44:22;;;;;;;3.60;1.80;;;21.60;52.90;;;;;;5087215;28;20017;-66
2024/03/20 00:46:47;;;;;;;3.45;1.85;;;21.60;52.90;;;;;;5089451;28;20028;-66
2024/03/20 00:49:13;;;;;;;3.78;2.03;;;21.60;52.90;;;;;;5089197;28;20488;-66
2024/03/20 00:51:40;;;;;;;4.43;2.13;;;21.60;52.90;;;;;;5089302;28;20042;-66
2024/03/20 00:54:05;;;;;;;3.78;1.88;;;21.60;52.90;;;;;;5089316;28;20328;-66
2024/03/20 00:56:31;;;;;;;4.70;1.80;;;21.60;52.90;;;;;;5088530;28;20028;-66
2024/03/20 00:58:56;;;;;;;4.68;1.92;;;21.60;52.90;;;;;;5087680;28;20607;-66
2024/03/20 01:01:22;;;;;;;3.60;1.95;;;21.60;52.90;;;;;;5088546;28;20020;-66
2024/03/20 01:03:48;;;;;;;3.58;1.90;;;21.60;52.90;;;;;;5089147;28;20096;-66
2024/03/20 01:06:13;;;;;;;3.58;2.00;;;21.60;52.90;;;;;;5088839;28;20020;-66
2024/03/20 01:08:40;;;;;;;3.35;1.80;;;21.60;52.90;;;;;;5089009;28;20032;-66
2024/03/20 01:11:06;;;;;;;3.70;1.90;;;21.60;52.90;;;;;;5089007;28;20499;-65
2024/03/20 01:13:32;;;;;;;3.47;2.03;;;21.60;53.40;;;;;;5089073;28;20024;-65
2024/03/20 01:15:57;;;;;;;3.63;2.00;;;21.60;52.90;;;;;;5087121;28;20077;-65
2024/03/20 01:18:23;;;;;;;3.85;2.13;;;21.60;52.90;;;;;;5088785;28;20060;-65
2024/03/20 01:20:49;;;;;;;4.25;2.10;;;21.50;52.80;;;;;;5088263;28;20388;-65
2024/03/20 01:23:15;;;;;;;3.53;1.80;;;21.60;52.90;;;;;;5088810;28;20028;-65
2024/03/20 01:25:41;;;;;;;3.45;1.88;;;21.60;52.90;;;;;;5088886;28;20057;-65
2024/03/20 01:28:06;;;;;;;3.88;1.92;;;21.50;52.80;;;;;;5079595;28;20372;-65
2024/03/20 01:30:32;;;;;;;3.63;1.88;;;21.50;52.80;;;;;;5068699;28;20391;-65
2024/03/20 01:32:58;;;;;;;4.30;1.95;;;21.50;52.80;;;;;;5088783;28;20034;-65
2024/03/20 01:35:23;;;;;;;3.53;2.00;;;21.50;52.80;;;;;;5090688;28;20380;-63
2024/03/20 01:37:49;;;;;;;3.65;1.92;;;21.50;52.80;;;;;;5092783;28;20541;-62
2024/03/20 01:40:16;;;;;;;4.38;1.92;;;21.50;53.30;;;;;;5092670;28;20070;-62
2024/03/20 01:42:41;;;;;;;3.13;1.60;;;21.50;52.80;;;;;;5092694;28;20027;-62
2024/03/20 01:45:14;;;;;;;3.38;1.90;;;21.50;52.80;;;;;;5090736;28;20024;-63
2024/03/20 01:47:43;;;;;;;3.92;1.92;;;21.50;52.80;;;;;;5092450;28;20507;-63
2024/03/20 01:50:10;;;;;;;;;;;21.50;52.80;;;;;;5091772;28;20464;-63
2024/03/20 01:52:54;;;;;;;3.35;1.90;;;21.50;52.80;;;;;;5092577;28;20359;-63
2024/03/20 01:55:23;;;;;;;3.35;1.77;;;21.50;52.80;;;;;;5092412;28;20476;-63
2024/03/20 01:57:50;;;;;;;3.20;1.65;;;21.50;53.30;;;;;;5092186;28;20036;-63
2024/03/20 02:00:27;;;;;;;2.78;1.55;;;21.50;53.30;;;;;;5089853;28;20100;-63
2024/03/20 02:03:01;;;;;;;4.65;2.10;;;21.50;52.90;;;;;;5092385;28;20047;-63
2024/03/20 02:05:27;;;;;;;3.42;1.80;;;21.40;52.80;;;;;;5091392;28;20031;-63
2024/03/20 02:07:54;;;;;;;3.97;2.05;;;21.50;52.80;;;;;;5092068;28;20225;-63
2024/03/20 02:10:20;;;;;;;3.45;2.03;;;21.50;52.80;;;;;;5091961;28;20040;-62
2024/03/20 02:12:46;;;;;;;2.95;1.65;;;21.40;52.80;;;;;;5092129;28;20537;-62
2024/03/20 02:15:12;;;;;;;3.33;1.52;;;21.50;52.80;;;;;;5090487;28;20020;-64
2024/03/20 02:17:41;;;;;;;2.88;1.60;;;21.40;52.80;;;;;;5091582;28;20582;-64
2024/03/20 02:20:08;;;;;;;4.03;2.00;;;21.40;52.80;;;;;;5091844;28;20024;-64
2024/03/20 02:22:41;;;;;;;3.13;1.70;;;21.40;52.80;;;;;;5091918;28;20071;-64
2024/03/20 02:25:11;;;;;;;3.80;1.90;;;21.40;52.80;;;;;;5091895;28;20049;-64
2024/03/20 02:27:37;;;;;;;3.30;1.75;;;21.40;52.80;;;;;;5091858;28;20017;-64
2024/03/20 02:30:04;;;;;;;2.50;1.50;;;21.40;52.80;;;;;;5089655;28;20081;-63
2024/03/20 02:32:30;;;;;;;3.95;1.67;;;21.40;52.80;;;;;;5089631;28;20031;-64
2024/03/20 02:34:56;;;;;;;3.65;1.70;;;21.40;52.80;;;;;;5091615;28;20025;-63
2024/03/20 02:37:21;;;;;;;2.88;1.80;;;21.40;52.80;;;;;;5091390;28;20027;-63
2024/03/20 02:39:47;;;;;;;2.75;1.60;;;21.40;52.80;;;;;;5091590;28;20064;-63
2024/03/20 02:42:12;;;;;;;2.88;1.65;;;21.40;52.80;;;;;;5081572;28;20480;-63
2024/03/20 02:44:38;;;;;;;3.20;1.70;;;21.40;52.80;;;;;;5091630;28;20053;-65
2024/03/20 02:47:03;;;;;;;2.80;1.73;;;21.40;52.80;;;;;;5088981;28;20555;-65
2024/03/20 02:49:29;;;;;;;2.92;1.50;;;21.40;52.80;;;;;;5091546;28;20028;-65
2024/03/20 02:51:55;;;;;;;2.92;1.67;;;21.40;52.80;;;;;;5091143;28;20028;-65
2024/03/20 02:54:21;;;;;;;3.30;1.60;;;21.40;52.80;;;;;;5091209;28;20028;-65
2024/03/20 02:56:46;;;;;;;4.07;1.70;;;21.40;52.80;;;;;;5091296;28;20059;-65
2024/03/20 02:59:12;;;;;;;3.20;1.65;;;21.40;52.80;;;;;;5091119;28;20089;-65
2024/03/20 03:01:37;;;;;;;3.13;1.60;;;21.40;52.80;;;;;;5079720;28;20059;-65
2024/03/20 03:04:03;;;;;;;2.88;1.67;;;21.40;52.80;;;;;;5090593;28;20036;-65
2024/03/20 03:06:29;;;;;;;3.63;1.80;;;21.30;52.70;;;;;;5072468;28;20484;-65
2024/03/20 03:08:55;;;;;;;2.90;1.52;;;21.40;53.30;;;;;;5090883;28;20107;-65
2024/03/20 03:11:20;;;;;;;2.72;1.40;;;21.40;52.80;;;;;;5090837;28;20028;-65
2024/03/20 03:13:46;;;;;;;3.30;1.55;;;21.30;52.70;;;;;;5090865;28;20063;-65
2024/03/20 03:16:12;;;;;;;2.28;1.35;;;21.30;52.70;;;;;;5088813;28;20232;-65
2024/03/20 03:18:38;;;;;;;2.67;1.58;;;21.30;52.70;;;;;;5090712;28;20578;-65
2024/03/20 03:21:08;;;;;;;2.70;1.55;;;21.30;52.70;;;;;;5090624;28;20452;-65
2024/03/20 03:23:34;;;;;;;3.10;1.55;;;21.40;52.80;;;;;;5090745;28;20024;-65
2024/03/20 03:25:59;;;;;;;3.40;1.80;;;21.30;52.70;;;;;;5090810;28;20581;-63
2024/03/20 03:28:25;;;;;;;2.72;1.52;;;21.30;52.70;;;;;;5089928;28;20031;-63
2024/03/20 03:30:50;;;;;;;3.38;1.88;;;21.30;52.70;;;;;;5088769;28;20110;-62
2024/03/20 03:33:16;;;;;;;3.88;1.50;;;21.30;52.70;;;;;;5090596;28;20361;-62
2024/03/20 03:35:41;;;;;;;2.90;1.20;;;21.30;52.70;;;;;;5090227;28;20065;-63
2024/03/20 03:38:07;;;;;;;2.17;1.17;;;21.30;52.70;;;;;;5090357;28;20028;-63
2024/03/20 03:40:33;;;;;;;2.85;1.48;;;21.30;52.70;;;;;;5090400;28;20618;-62
2024/03/20 03:42:58;;;;;;;2.50;1.50;;;21.30;52.70;;;;;;5090658;28;20032;-63
2024/03/20 03:45:24;;;;;;;3.38;1.40;;;21.30;52.70;;;;;;5088300;28;20104;-64
2024/03/20 03:47:49;;;;;;;2.75;1.42;;;21.30;52.70;;;;;;5090265;28;20392;-64
2024/03/20 03:50:15;;;;;;;3.30;1.60;;;21.30;52.70;;;;;;5090121;28;20032;-63
2024/03/20 03:52:41;;;;;;;3.17;1.42;;;21.30;52.70;;;;;;5089983;28;20949;-63
2024/03/20 03:55:07;;;;;;;2.67;1.38;;;21.30;52.70;;;;;;5090275;28;20032;-63
2024/03/20 03:57:32;;;;;;;2.70;1.52;;;21.30;52.70;;;;;;5089269;28;20562;-62
2024/03/20 03:59:58;;;;;;;3.20;1.63;;;21.30;52.70;;;;;;5089389;28;20099;-62
2024/03/20 04:02:27;;;;;;;2.25;1.40;;;21.30;52.70;;;;;;5088250;28;20036;-64
2024/03/20 04:04:53;;;;;;;3.00;1.60;;;21.20;52.60;;;;;;5089757;28;20047;-62
2024/03/20 04:07:18;;;;;;;2.83;1.45;;;21.20;52.60;;;;;;5089529;28;20365;-63
2024/03/20 04:09:44;;;;;;;3.47;1.45;;;21.20;52.60;;;;;;5089768;28;20039;-63
2024/03/20 04:12:10;;;;;;;3.20;1.55;;;21.20;52.60;;;;;;5089501;28;20060;-63
2024/03/20 04:14:35;;;;;;;2.85;1.38;;;21.20;52.70;;;;;;5089838;28;20024;-63
2024/03/20 04:17:01;;;;;;;1.95;1.17;;;21.20;52.70;;;;;;5088035;28;20160;-62
2024/03/20 04:19:26;;;;;;;2.30;1.40;;;21.20;52.70;;;;;;5089464;28;20032;-63
2024/03/20 04:21:55;;;;;;;2.58;1.58;;;21.20;53.20;;;;;;5089393;28;20373;-62
2024/03/20 04:24:21;;;;;;;2.47;1.20;;;21.20;52.60;;;;;;5089219;28;20483;-63
2024/03/20 04:26:47;;;;;;;2.42;1.50;;;21.20;53.20;;;;;;5089798;28;20028;-62
2024/03/20 04:29:12;;;;;;;2.17;1.40;;;21.20;52.70;;;;;;5089420;28;20032;-63
2024/03/20 04:31:38;;;;;;;2.15;1.30;;;21.20;52.70;;;;;;5087614;28;20098;-62
2024/03/20 04:34:03;;;;;;;3.00;1.60;;;21.20;52.60;;;;;;5089449;28;20400;-62
2024/03/20 04:36:29;;;;;;;2.35;1.42;;;21.20;52.70;;;;;;5089320;28;20031;-64
2024/03/20 04:38:54;;;;;;;2.67;1.50;;;21.20;52.60;;;;;;5089232;28;20055;-62
2024/03/20 04:41:22;;;;;;;2.22;1.20;;;21.20;52.60;;;;;;5089165;28;20024;-62
2024/03/20 04:43:49;;;;;;;2.00;1.20;;;21.20;52.60;;;;;;5071485;28;20119;-63
2024/03/20 04:46:15;;;;;;;2.30;1.40;;;21.20;52.70;;;;;;5086982;28;20060;-63
2024/03/20 04:48:40;;;;;;;2.40;1.45;;;21.20;52.70;;;;;;5088652;28;20024;-63
2024/03/20 04:51:06;;;;;;;1.98;1.13;;;21.20;52.70;;;;;;5089026;28;20032;-63
2024/03/20 04:53:32;;;;;;;2.65;1.45;;;21.20;52.70;;;;;;5077993;28;20494;-62
2024/03/20 04:55:57;;;;;;;3.35;1.60;;;21.20;52.70;;;;;;5089348;28;20028;-64
2024/03/20 04:58:23;;;;;;;2.15;1.30;;;21.20;52.70;;;;;;5089058;28;20421;-62
2024/03/20 05:00:49;;;;;;;2.58;1.42;;;21.20;52.70;;;;;;5087707;28;20031;-64
2024/03/20 05:03:15;;;;;;;2.33;1.27;;;21.10;52.60;;;;;;5088950;28;20433;-62
2024/03/20 05:05:41;;;;;;;2.47;1.40;;;21.20;52.70;;;;;;5089181;28;20020;-62
2024/03/20 05:08:06;;;;;;;2.63;1.25;;;21.20;52.70;;;;;;5088726;28;20405;-64
2024/03/20 05:10:34;;;;;;;1.83;1.27;;;21.10;52.70;;;;;;5088749;28;20028;-62
2024/03/20 05:13:00;;;;;;;1.75;1.10;;;21.10;52.70;;;;;;5088948;28;20040;-62
2024/03/20 05:15:26;;;;;;;2.20;1.15;;;21.10;52.60;;;;;;5088856;28;20035;-62
2024/03/20 05:17:51;;;;;;;2.58;1.42;;;21.10;52.70;;;;;;5086557;28;20020;-63
2024/03/20 05:20:19;;;;;;;2.13;1.10;;;21.10;52.60;;;;;;5088792;28;20069;-62
2024/03/20 05:22:45;;;;;;;2.13;1.30;;;21.10;52.60;;;;;;5088712;28;20112;-62
2024/03/20 05:25:10;;;;;;;1.83;1.15;;;21.10;53.20;;;;;;5088904;28;20141;-63
2024/03/20 05:27:38;;;;;;;1.70;1.25;;;21.10;52.70;;;;;;5088920;28;20574;-63
2024/03/20 05:30:05;;;;;;;2.30;1.33;;;21.10;52.70;;;;;;5088804;28;20028;-62
2024/03/20 05:32:30;;;;;;;2.80;1.60;;;21.10;52.70;;;;;;5086396;28;20444;-62
2024/03/20 05:34:56;;;;;;;2.03;1.30;;;21.10;52.70;;;;;;5088728;28;20052;-63
2024/03/20 05:37:21;;;;;;;2.55;1.60;;;21.10;52.70;;;;;;5088533;28;20023;-62
2024/03/20 05:39:47;;;;;;;2.08;1.30;;;21.10;52.70;;;;;;5088460;28;20477;-62
2024/03/20 05:42:13;;;;;;;2.95;1.30;;;21.10;52.70;;;;;;5088545;28;20024;-62
2024/03/20 05:44:38;;;;;;;2.45;1.38;;;21.10;52.70;;;;;;5088381;28;20123;-62
2024/03/20 05:47:04;;;;;;;2.40;1.25;;;21.10;52.70;;;;;;5086350;28;20035;-63
2024/03/20 05:49:29;;;;;;;2.40;1.13;;;21.10;52.70;;;;;;5088571;28;20028;-62
2024/03/20 05:51:55;;;;;;;2.15;1.20;;;21.10;52.70;;;;;;5088290;28;20028;-62
2024/03/20 05:54:21;;;;;;;2.35;1.15;;;21.10;52.70;;;;;;5088736;28;20043;-62
2024/03/20 05:56:46;;;;;;;1.92;1.20;;;21.10;52.70;;;;;;5088320;28;20043;-62
2024/03/20 05:59:12;;;;;;;2.03;1.10;;;21.10;52.70;;;;;;5088321;28;20472;-62
2024/03/20 06:01:38;;;;;;;2.40;1.20;;;21.10;52.70;;;;;;5086124;28;20056;-63
2024/03/20 06:04:04;;;;;;;2.38;1.20;;;21.10;52.70;;;;;;5088338;28;20532;-62
2024/03/20 06:06:30;;;;;;;3.08;1.60;;;21.10;52.70;;;;;;5088561;28;20020;-62
2024/03/20 06:08:56;;;;;;;1.60;1.10;;;21.10;52.70;;;;;;5088234;28;20031;-63
2024/03/20 06:11:22;;;;;;;2.08;1.08;;;21.10;52.70;;;;;;5088225;28;20115;-63
2024/03/20 06:13:48;;;;;;;2.03;1.10;;;21.10;52.70;;;;;;5088493;28;20024;-62
2024/03/20 06:16:14;;;;;;;2.35;1.20;;;21.10;52.70;;;;;;5087300;28;20036;-65
2024/03/20 06:18:40;;;;;;;1.80;1.20;;;21.10;52.70;;;;;;5065936;28;20044;-64
2024/03/20 06:21:07;;;;;;;2.20;1.30;;;21.10;52.70;;;;;;5068019;28;20400;-65
2024/03/20 06:23:32;;;;;;;2.00;1.20;;;21.10;52.70;;;;;;5071221;28;20033;-64
2024/03/20 06:25:59;;;;;;;2.10;1.20;;;21.10;52.80;;;;;;5071594;28;20032;-65
2024/03/20 06:28:25;;;;;;;1.90;1.20;;;21.10;52.80;;;;;;5071036;28;20481;-64
2024/03/20 06:30:53;;;;;;;2.30;1.08;;;21.10;52.70;;;;;;5086977;28;20037;-65
2024/03/20 06:33:19;;;;;;;2.50;1.13;;;21.10;52.80;;;;;;5069206;28;20032;-65
2024/03/20 06:35:47;;;;;;;2.55;1.10;;;21.00;52.70;;;;;;5071030;28;20064;-65
2024/03/20 06:38:14;;;;;;;3.33;1.10;;;21.10;52.80;;;;;;5070789;28;20487;-65
2024/03/20 06:40:42;;;;;;;1.98;1.20;;;21.10;52.80;;;;;;5070909;28;20483;-65
2024/03/20 06:43:07;;;;;;;2.03;1.20;;;21.10;52.80;;;;;;5071235;28;20468;-64
2024/03/20 06:45:38;;;;;;;2.10;1.20;;;21.10;52.80;;;;;;5071184;28;20029;-65
2024/03/20 06:48:05;;;;;;;1.85;1.10;;;21.10;52.80;;;;;;5051057;28;20029;-64
2024/03/20 06:50:31;;;;;;;1.95;1.20;;;21.10;52.70;;;;;;5071256;28;20511;-65
2024/03/20 06:52:59;;;;;;;1.73;1.20;;;21.00;52.70;;;;;;5068696;28;20021;-65
2024/03/20 06:55:26;;;;;;;1.70;1.17;;;21.10;52.70;;;;;;5070966;28;20510;-64
2024/03/20 06:57:52;;;;;;;2.67;1.50;;;21.10;52.70;;;;;;5050186;28;20501;-65
2024/03/20 07:00:18;;;;;;;2.22;1.30;;;21.10;52.80;;;;;;5070765;28;20028;-65
2024/03/20 07:02:45;;;;;;;2.45;1.10;;;21.10;52.70;;;;;;5067975;28;21023;-65
2024/03/20 07:05:17;;;;;;;2.22;1.20;;;21.10;52.70;;;;;;5070598;28;20036;-65
2024/03/20 07:07:43;;;;;;;2.10;1.10;;;21.10;52.70;;;;;;5068892;28;20542;-65
2024/03/20 07:10:10;;;;;;;1.90;1.17;;;21.10;52.70;;;;;;5070391;28;20021;-64
2024/03/20 07:12:36;;;;;;;1.83;1.27;;;21.10;52.70;;;;;;5070636;28;20461;-64
2024/03/20 07:15:09;;;;;;;1.80;1.15;;;21.00;52.70;;;;;;5070685;28;20465;-62
2024/03/20 07:17:35;;;;;;;2.83;1.17;;;21.10;52.70;;;;;;5068669;28;20154;-61
2024/03/20 07:20:05;;;;;;;2.20;1.10;;;21.00;52.60;;;;;;5070511;28;20575;-63
2024/03/20 07:22:31;;;;;;;2.03;1.17;;;21.10;52.70;;;;;;5069316;28;20036;-62
2024/03/20 07:24:57;;;;;;;2.75;1.10;;;21.10;52.60;;;;;;5070297;28;20028;-64
2024/03/20 07:27:23;;;;;;;1.88;1.15;;;21.00;52.60;;;;;;5070445;28;20469;-62
2024/03/20 07:29:48;;;;;;;2.50;1.50;;;21.10;52.60;;;;;;5070455;28;20107;-62
2024/03/20 07:32:15;;;;;;;1.80;1.08;;;21.10;52.60;;;;;;5067573;28;20029;-62
2024/03/20 07:34:40;;;;;;;3.17;2.00;;;21.10;52.60;;;;;;5070186;28;20512;-62
2024/03/20 07:37:06;;;;;;;2.33;1.38;;;21.10;52.60;;;;;;5070147;28;20107;-63
2024/03/20 07:39:33;;;;;;;2.05;1.35;;;21.10;52.60;;;;;;5069012;28;20257;-63
2024/03/20 07:42:02;;;;;;;2.00;1.17;;;21.10;52.60;;;;;;5070171;28;20031;-63
2024/03/20 07:44:30;;;;;;;2.63;1.40;;;21.10;52.50;;;;;;5069908;28;20024;-62
2024/03/20 07:46:57;;;;;;;3.22;1.33;;;21.00;52.50;;;;;;5070009;28;20033;-62
2024/03/20 07:49:23;;;;;;;2.65;1.20;;;21.10;52.50;;;;;;5067874;28;20037;-63
2024/03/20 07:51:49;;;;;;;2.53;1.40;;;21.10;52.50;;;;;;5069652;28;20507;-63
2024/03/20 07:54:15;;;;;;;2.00;1.27;;;21.10;52.50;;;;;;5069483;28;20091;-62
2024/03/20 07:56:41;;;;;;;2.13;1.33;;;21.10;52.50;;;;;;5069536;28;20090;-63
2024/03/20 07:59:06;;;;;;;2.00;1.20;;;21.10;52.50;;;;;;5068831;28;20032;-62
2024/03/20 08:01:38;;;;;;;1.83;1.30;;;21.10;52.50;;;;;;5069594;28;20090;-63
2024/03/20 08:04:04;;;;;;;2.10;1.40;;;21.10;52.50;;;;;;5067253;28;20563;-63
2024/03/20 08:06:29;;;;;;;2.25;1.40;;;21.10;52.50;;;;;;5069855;28;20036;-63
2024/03/20 08:08:55;;;;;;;2.30;1.20;;;21.10;52.60;;;;;;5069367;28;20111;-63
2024/03/20 08:11:20;;;;;;;2.17;1.27;;;21.10;52.50;;;;;;5069641;28;20078;-63
2024/03/20 08:13:46;;;;;;;2.17;1.40;;;21.10;52.50;;;;;;5069488;28;20115;-63
2024/03/20 08:16:11;;;;;;;3.97;1.35;;;21.10;52.50;;;;;;5069501;28;20059;-63
2024/03/20 08:18:37;;;;;;;2.28;1.45;;;21.10;52.60;;;;;;5066700;28;20392;-64
2024/03/20 08:21:03;;;;;;;2.20;1.30;;;21.10;52.50;;;;;;5069181;28;20017;-63
2024/03/20 08:23:30;;;;;;;2.50;1.40;;;21.00;52.50;;;;;;5068860;28;20020;-63
2024/03/20 08:25:57;;;;;;;2.55;1.27;;;21.10;52.60;;;;;;5069323;28;20017;-62
2024/03/20 08:28:22;;;;;;;1.88;1.30;;;21.10;52.60;;;;;;5069104;28;20024;-62
2024/03/20 08:30:50;;;;;;;2.40;1.45;;;21.00;52.60;;;;;;5069162;28;20043;-63
2024/03/20 08:33:16;;;;;;;2.83;1.40;;;21.00;52.60;;;;;;5067164;28;20036;-62
2024/03/20 08:35:42;;;;;;;2.35;1.38;;;21.10;52.60;;;;;;5068806;28;20485;-63
2024/03/20 08:38:08;;;;;;;2.58;1.40;;;21.00;52.60;;;;;;5068972;28;20436;-63
2024/03/20 08:40:33;;;;;;;2.42;1.40;;;21.00;52.60;;;;;;5068816;28;20025;-63
2024/03/20 08:42:59;;;;;;;2.33;1.55;;;21.10;52.70;;;;;;5068944;28;20028;-63
2024/03/20 08:45:25;;;;;;;2.35;1.30;;;21.00;52.60;;;;;;5068475;28;20469;-63
2024/03/20 08:47:51;;;;;;;3.10;1.40;;;21.00;52.70;;;;;;5066287;28;20029;-63
2024/03/20 08:50:16;;;;;;;2.60;1.50;;;21.00;52.60;;;;;;5069297;28;20082;-63
2024/03/20 08:52:42;;;;;;;2.60;1.63;;;21.10;52.70;;;;;;5068922;28;20033;-64
2024/03/20 08:55:08;;;;;;;2.63;1.30;;;21.00;52.70;;;;;;5068263;28;20048;-63
2024/03/20 08:57:35;;;;;;;2.40;1.50;;;21.00;52.70;;;;;;5068623;28;20099;-63
2024/03/20 09:00:05;;;;;;;3.30;1.60;;;21.00;52.70;;;;;;5068801;28;20024;-63
2024/03/20 09:02:30;;;;;;;2.53;1.42;;;21.00;52.70;;;;;;5068903;28;20028;-63
2024/03/20 09:04:56;;;;;;;2.30;1.40;;;21.00;52.70;;;;;;5067007;28;20028;-63
2024/03/20 09:07:21;;;;;;;2.72;1.50;;;21.00;52.70;;;;;;5068737;28;20028;-64
2024/03/20 09:09:47;;;;;;;3.10;1.30;;;21.10;52.80;;;;;;5068281;28;20481;-64
2024/03/20 09:12:13;;;;;;;2.13;1.40;;;21.00;52.70;;;;;;5068817;28;20103;-63
2024/03/20 09:14:39;;;;;;;1.55;1.23;;;21.00;52.70;;;;;;5049654;28;20056;-63
2024/03/20 09:17:05;;;;;;;2.17;1.42;;;21.00;52.70;;;;;;5068685;28;20040;-62
2024/03/20 09:19:31;;;;;;;2.03;1.38;;;21.00;52.70;;;;;;5067015;28;20025;-63
2024/03/20 09:21:57;;;;;;;2.08;1.35;;;21.00;52.70;;;;;;5068157;28;20024;-62
2024/03/20 09:24:22;;;;;;;2.45;1.58;;;21.00;52.70;;;;;;5068176;28;20032;-62
2024/03/20 09:26:51;;;;;;;2.90;1.40;;;21.00;53.30;;;;;;5068685;28;21105;-62
2024/03/20 09:29:18;;;;;;;1.95;1.30;;;21.00;52.70;;;;;;5068404;28;20039;-63
2024/03/20 09:31:44;;;;;;;2.70;1.60;;;21.00;52.70;;;;;;5068715;28;20476;-63
2024/03/20 09:34:09;;;;;;;2.17;1.40;;;21.00;52.80;;;;;;5066251;28;20412;-61
2024/03/20 09:36:36;;;;;;;2.60;1.58;;;21.00;52.70;;;;;;5068530;28;20039;-63
2024/03/20 09:39:03;;;;;;;2.67;1.40;;;21.00;52.70;;;;;;5068058;28;20039;-62
2024/03/20 09:41:29;;;;;;;2.00;1.40;;;21.00;52.80;;;;;;5068492;28;20509;-62
2024/03/20 09:43:55;;;;;;;2.22;1.30;;;21.00;52.80;;;;;;5068479;28;20567;-62
2024/03/20 09:46:22;;;;;;;2.22;1.35;;;21.00;53.30;;;;;;5068491;28;20021;-63
2024/03/20 09:48:48;;;;;;;2.00;1.40;;;21.00;52.70;;;;;;5066023;28;20040;-63
2024/03/20 09:51:17;;;;;;;2.15;1.30;;;21.10;52.80;;;;;;5068412;28;20070;-62
2024/03/20 09:53:43;;;;;;;3.58;1.50;;;21.00;52.80;;;;;;5068500;28;20042;-63
2024/03/20 09:56:10;;;;;;;2.40;1.33;;;21.10;52.80;;;;;;5068047;28;20029;-63
2024/03/20 09:58:41;;;;;;;2.30;1.40;;;21.00;52.70;;;;;;5071920;28;20039;-63
2024/03/20 10:01:17;;;;;;;2.63;1.38;;;21.10;52.80;;;;;;5071741;28;20049;-63
2024/03/20 10:03:43;;;;;;;2.40;1.40;;;21.00;52.70;;;;;;5069821;28;20024;-63
2024/03/20 10:06:10;;;;;;;2.22;1.25;;;21.10;52.80;;;;;;5071807;28;20468;-63
2024/03/20 10:08:39;;;;;;;3.13;1.40;;;21.10;52.80;;;;;;5071420;28;20440;-63
2024/03/20 10:11:08;;;;;;;2.28;1.45;;;21.00;52.70;;;;;;5071825;28;20036;-63
2024/03/20 10:13:40;;;;;;;3.22;1.50;;;21.00;52.70;;;;;;5071665;28;20041;-63
2024/03/20 10:16:07;;;;;;;1.63;1.30;;;21.00;52.80;;;;;;5071907;28;20025;-62
2024/03/20 10:18:34;;;;;;;2.03;1.35;;;21.10;52.80;;;;;;5069339;28;20028;-65
2024/03/20 10:21:03;;;;;;;2.85;1.40;;;21.00;52.80;;;;;;5052596;28;20017;-65
2024/03/20 10:23:29;;;;;;;2.28;1.42;;;21.00;52.80;;;;;;5071473;28;20040;-66
2024/03/20 10:26:02;;;;;;;1.92;1.30;;;21.00;52.80;;;;;;5071301;28;20496;-66
2024/03/20 10:28:32;;;;;;;2.17;1.33;;;21.10;52.80;;;;;;5086824;28;20393;-64
2024/03/20 10:31:02;;;;;;;2.35;1.38;;;21.10;52.90;;;;;;5071583;28;20112;-63
2024/03/20 10:33:29;;;;;;;1.83;1.33;;;21.00;52.80;;;;;;5069299;28;20062;-63
2024/03/20 10:35:55;;;;;;;2.58;1.50;;;21.00;53.30;;;;;;5069893;28;20115;-63
2024/03/20 10:38:22;;;;;;;2.50;1.50;;;21.00;52.80;;;;;;5071145;28;20115;-63
2024/03/20 10:40:49;;;;;;;2.35;1.48;;;21.10;52.80;;;;;;5071378;28;20047;-63
2024/03/20 10:43:22;;;;;;;2.63;1.10;;;21.10;52.80;;;;;;5071169;28;20076;-63
2024/03/20 10:45:49;;;;;;;1.90;1.30;;;21.10;52.80;;;;;;5071077;28;20020;-63
2024/03/20 10:48:19;;;;;;;2.70;1.30;;;21.10;52.80;;;;;;5071006;28;20527;-63
2024/03/20 10:50:48;;;;;;;2.33;1.35;;;21.10;52.80;;;;;;5069622;28;20729;-63
2024/03/20 10:53:15;;;;;;;1.52;1.10;;;21.10;53.30;;;;;;5070673;28;20029;-63
2024/03/20 10:55:42;;;;;;;2.03;1.40;;;21.10;52.80;;;;;;5070107;28;20526;-63
2024/03/20 10:58:15;;;;;;;1.90;1.27;;;21.10;52.80;;;;;;5071056;28;20029;-65
2024/03/20 11:00:51;;;;;;;2.05;1.20;;;21.10;52.80;;;;;;5070794;28;20028;-65
2024/03/20 11:03:37;;;;;;;2.30;1.50;;;21.10;52.80;;;;;;5052577;28;20021;-65
2024/03/20 11:06:30;;;;;;;1.77;1.38;;;21.10;52.80;;;;;;5070696;28;20064;-62
2024/03/20 11:09:03;;;;;;;2.03;1.30;;;21.10;52.80;;;;;;5089499;28;20353;-63
2024/03/20 11:11:30;;;;;;;1.88;1.30;;;21.10;52.80;;;;;;5090543;28;20457;-62
2024/03/20 11:14:07;;;;;;;2.40;1.30;;;21.10;52.80;;;;;;5090956;28;20093;-63
2024/03/20 11:16:33;;;;;;;2.22;1.30;;;21.10;53.30;;;;;;5091077;28;20085;-62
2024/03/20 11:19:05;;;;;;;1.90;1.20;;;21.10;52.70;;;;;;5088444;28;20024;-63
2024/03/20 11:21:31;;;;;;;1.90;1.13;;;21.10;52.70;;;;;;5090437;28;20361;-62
2024/03/20 11:23:59;;;;;;;1.80;1.20;;;21.10;52.70;;;;;;5090530;28;20032;-63
2024/03/20 11:26:25;;;;;;;1.95;1.30;;;21.10;52.70;;;;;;5081751;28;20054;-62
2024/03/20 11:28:51;;;;;;;2.25;1.20;;;21.10;52.70;;;;;;5090882;28;20437;-62
2024/03/20 11:31:18;;;;;;;1.73;1.10;;;21.10;52.90;;;;;;5089862;28;20038;-62
2024/03/20 11:33:44;;;;;;;2.22;1.27;;;21.10;52.70;;;;;;5090079;28;20081;-62
2024/03/20 11:36:21;;;;;;;1.73;1.17;;;21.10;52.70;;;;;;5088979;28;20528;-63
2024/03/20 11:38:47;;;;;;;2.00;1.30;;;21.10;52.60;;;;;;5089692;28;20028;-61
2024/03/20 11:41:17;;;;;;;1.90;1.30;;;21.10;52.60;;;;;;5089865;28;20027;-62
2024/03/20 11:43:43;;;;;;;2.03;1.30;;;21.10;52.60;;;;;;5090818;28;20416;-61
2024/03/20 11:46:14;;;;;;;1.80;1.17;;;21.10;52.50;;;;;;5090374;28;20020;-62
2024/03/20 11:48:39;;;;;;;1.60;1.10;;;21.10;52.50;;;;;;5089771;28;20545;-62
2024/03/20 11:51:10;;;;;;;1.98;1.30;;;21.10;52.50;;;;;;5088125;28;20103;-61
2024/03/20 11:53:36;;;;;;;2.22;1.20;;;21.10;52.50;;;;;;5090161;28;20056;-62
2024/03/20 11:56:02;;;;;;;1.85;1.30;;;21.10;52.40;;;;;;5090088;28;20089;-62
2024/03/20 11:58:28;;;;;;;2.00;1.30;;;21.20;52.40;;;;;;5089928;28;20468;-62
2024/03/20 12:00:54;;;;;;;2.20;1.40;;;21.10;52.40;;;;;;5090028;28;20050;-62
2024/03/20 12:03:21;;;;;;;1.73;1.27;;;21.10;52.30;;;;;;5089840;28;20468;-62
2024/03/20 12:05:47;;;;;;;1.80;1.10;;;21.10;52.30;;;;;;5087373;28;20028;-62
2024/03/20 12:08:14;;;;;;;1.85;1.10;;;21.10;52.30;;;;;;5089884;28;20032;-65
2024/03/20 12:10:42;;;;;;;1.30;1.02;;;21.10;52.20;;;;;;5071158;28;20036;-65
2024/03/20 12:13:10;;;;;;;2.00;1.30;;;21.10;52.20;;;;;;5089626;28;20361;-65
2024/03/20 12:15:37;;;;;;;1.57;1.10;;;21.20;52.20;;;;;;5089455;28;20024;-66
2024/03/20 12:18:03;;;;;;;1.48;1.10;;;21.10;52.10;;;;;;5089177;28;20262;-63
2024/03/20 12:20:30;;;;;;;2.53;1.40;;;21.10;52.10;;;;;;5087694;28;20024;-63
2024/03/20 12:22:55;;;;;;;1.80;1.20;;;21.20;52.10;;;;;;5089634;28;20120;-62
2024/03/20 12:25:21;;;;;;;1.70;1.30;;;21.20;52.10;;;;;;5089064;28;20439;-63
2024/03/20 12:27:47;;;;;;;1.80;1.20;;;21.20;52.10;;;;;;5089729;28;20426;-63
2024/03/20 12:30:13;;;;;;;1.73;1.10;;;21.20;52.10;;;;;;5089607;28;20027;-63
2024/03/20 12:32:38;;;;;;;1.58;1.10;;;21.20;52.10;;;;;;5089568;28;20425;-62
2024/03/20 12:35:05;;;;;;;1.45;1.00;;;21.20;52.10;;;;;;5087658;28;20020;-62
2024/03/20 12:37:32;;;;;;;1.65;1.10;;;21.20;52.00;;;;;;5089376;28;20055;-62
2024/03/20 12:39:58;;;;;;;1.45;1.10;;;21.20;52.10;;;;;;5070847;28;20059;-63
2024/03/20 12:42:24;;;;;;;2.00;1.20;;;21.20;52.10;;;;;;5089355;28;20032;-61
2024/03/20 12:44:50;;;;;;;2.25;1.20;;;21.20;52.10;;;;;;5089329;28;20112;-61